Time;durP1;ratioP1;P1;durP2;ratioP2;P2;SDS_P1;SDS_P2;PMS_P1;PMS_P2;Temp;Humidity;BMP_temperature;BMP_pressure;BME280_temperature;BME280_humidity;BME280_pressure;Samples;Min_cycle;Max_cycle;Signal;HPM_P1;HPM_P2
2023/05/03 00:00:33;;;;;;;4.03;2.40;;;;;;;;;;5053120;28;20449;-76
2023/05/03 00:03:03;;;;;;;3.00;1.90;;;;;;;;;;5053149;28;20931;-76
2023/05/03 00:05:30;;;;;;;4.17;1.80;;;;;;;;;;5052827;28;20462;-78
2023/05/03 00:07:58;;;;;;;4.30;2.10;;;;;;;;;;5052495;28;20450;-77
2023/05/03 00:10:25;;;;;;;4.83;2.10;;;;;;;;;;5053060;28;20450;-78
2023/05/03 00:12:52;;;;;;;3.77;1.60;;;;;;;;;;5052058;28;20446;-78
2023/05/03 00:15:20;;;;;;;2.20;1.37;;;;;;;;;;5052576;28;20443;-78
2023/05/03 00:17:47;;;;;;;3.57;2.07;;;;;;;;;;5051879;28;20928;-78
2023/05/03 00:20:16;;;;;;;2.03;1.30;;;;;;;;;;5052766;28;20473;-78
2023/05/03 00:22:43;;;;;;;3.07;2.20;;;;;;;;;;5052041;28;20450;-78
2023/05/03 00:25:10;;;;;;;2.13;1.43;;;;;;;;;;5052667;28;20931;-79
2023/05/03 00:27:38;;;;;;;3.07;1.87;;;;;;;;;;5052383;28;20446;-78
2023/05/03 00:30:05;;;;;;;2.93;1.70;;;;;;;;;;5052745;28;20860;-77
2023/05/03 00:32:34;;;;;;;3.00;1.80;;;;;;;;;;5052522;28;20486;-78
2023/05/03 00:35:01;;;;;;;3.00;1.80;;;;;;;;;;5051771;28;20451;-78
2023/05/03 00:37:29;;;;;;;2.10;1.43;;;;;;;;;;5052168;28;20453;-78
2023/05/03 00:39:57;;;;;;;4.43;2.00;;;;;;;;;;5051535;28;20457;-75
2023/05/03 00:42:24;;;;;;;2.90;1.50;;;;;;;;;;5052181;28;20461;-78
2023/05/03 00:44:51;;;;;;;3.80;1.80;;;;;;;;;;5050880;28;20970;-78
2023/05/03 00:47:18;;;;;;;4.03;1.60;;;;;;;;;;5052179;28;20451;-78
2023/05/03 00:49:46;;;;;;;3.27;1.63;;;;;;;;;;5050932;28;20445;-75
2023/05/03 00:52:15;;;;;;;4.47;2.27;;;;;;;;;;5052114;28;20478;-78
2023/05/03 00:54:42;;;;;;;2.33;1.67;;;;;;;;;;5051293;28;20474;-78
2023/05/03 00:57:09;;;;;;;2.50;1.60;;;;;;;;;;5052252;28;20533;-78
2023/05/03 00:59:37;;;;;;;3.20;2.40;;;;;;;;;;5051604;28;20446;-76
2023/05/03 01:02:04;;;;;;;3.40;2.13;;;;;;;;;;5052095;28;20458;-77
2023/05/03 01:04:31;;;;;;;3.57;1.97;;;;;;;;;;5051268;28;20450;-76
2023/05/03 01:07:06;;;;;;;2.57;1.80;;;;;;;;;;5051982;28;20458;-78
2023/05/03 01:09:38;;;;;;;3.20;1.90;;;;;;;;;;5052230;28;20970;-78
2023/05/03 01:12:13;;;;;;;3.37;1.60;;;;;;;;;;5052090;28;20576;-78
2023/05/03 01:14:46;;;;;;;2.70;1.57;;;;;;;;;;5051209;28;20445;-78
2023/05/03 01:17:14;;;;;;;3.20;1.47;;;;;;;;;;5052313;28;20445;-78
2023/05/03 01:19:44;;;;;;;2.40;2.20;;;;;;;;;;5051299;28;20458;-79
2023/05/03 01:22:17;;;;;;;3.20;1.80;;;;;;;;;;5052086;28;20825;-78
2023/05/03 01:24:46;;;;;;;3.30;1.90;;;;;;;;;;5051109;28;20458;-78
2023/05/03 01:27:14;;;;;;;3.47;1.87;;;;;;;;;;5052026;28;20928;-79
2023/05/03 01:29:42;;;;;;;3.53;1.87;;;;;;;;;;5051270;28;20442;-79
2023/05/03 01:32:14;;;;;;;3.70;2.20;;;;;;;;;;5051643;28;20874;-78
2023/05/03 01:34:44;;;;;;;2.83;1.40;;;;;;;;;;5050504;28;20512;-79
2023/05/03 01:37:13;;;;;;;3.23;1.90;;;;;;;;;;5051350;28;20794;-78
2023/05/03 01:39:44;;;;;;;3.83;1.70;;;;;;;;;;5051199;28;20454;-78
2023/05/03 01:42:12;;;;;;;2.97;1.33;;;;;;;;;;5051811;28;20458;-78
2023/05/03 01:44:42;;;;;;;4.83;1.53;;;;;;;;;;5050332;28;20450;-78
2023/05/03 01:47:10;;;;;;;3.50;2.00;;;;;;;;;;5051339;28;20450;-78
2023/05/03 01:49:37;;;;;;;4.27;2.00;;;;;;;;;;5050605;28;20454;-78
2023/05/03 01:52:04;;;;;;;2.80;1.63;;;;;;;;;;5050998;28;20486;-76
2023/05/03 01:54:31;;;;;;;3.30;1.83;;;;;;;;;;5050826;28;20482;-79
2023/05/03 01:56:58;;;;;;;4.30;2.60;;;;;;;;;;5050906;28;20478;-78
2023/05/03 01:59:25;;;;;;;3.23;2.20;;;;;;;;;;5051607;28;20454;-77
2023/05/03 02:01:54;;;;;;;2.80;1.97;;;;;;;;;;5050699;28;20955;-77
2023/05/03 02:04:21;;;;;;;2.87;1.60;;;;;;;;;;5049941;28;20550;-77
2023/05/03 02:06:48;;;;;;;2.93;1.93;;;;;;;;;;5050341;28;20886;-77
2023/05/03 02:09:15;;;;;;;3.03;1.40;;;;;;;;;;5050890;28;20453;-77
2023/05/03 02:11:42;;;;;;;2.87;1.57;;;;;;;;;;5050050;28;20494;-75
2023/05/03 02:14:09;;;;;;;2.47;1.60;;;;;;;;;;5050587;28;20458;-76
2023/05/03 02:16:36;;;;;;;2.47;1.53;;;;;;;;;;5050511;28;20461;-76
2023/05/03 02:19:06;;;;;;;1.90;1.43;;;;;;;;;;5050948;28;20446;-76
2023/05/03 02:21:34;;;;;;;3.00;2.60;;;;;;;;;;5050773;28;20955;-76
2023/05/03 02:24:01;;;;;;;3.80;1.60;;;;;;;;;;5049979;28;20522;-76
2023/05/03 02:26:28;;;;;;;2.97;2.27;;;;;;;;;;5050915;28;20451;-76
2023/05/03 02:28:56;;;;;;;2.83;1.97;;;;;;;;;;5050281;28;20743;-76
2023/05/03 02:31:24;;;;;;;5.47;2.57;;;;;;;;;;5050689;28;20569;-77
2023/05/03 02:33:51;;;;;;;3.47;2.50;;;;;;;;;;5049777;28;20815;-76
2023/05/03 02:36:19;;;;;;;3.40;1.83;;;;;;;;;;5050840;28;20453;-77
2023/05/03 02:38:46;;;;;;;2.50;1.60;;;;;;;;;;5050194;28;20451;-76
2023/05/03 02:41:13;;;;;;;3.10;1.63;;;;;;;;;;5050933;28;20446;-77
2023/05/03 02:43:40;;;;;;;1.97;1.20;;;;;;;;;;5049370;28;20931;-77
2023/05/03 02:46:07;;;;;;;2.63;1.53;;;;;;;;;;5050493;28;20442;-77
2023/05/03 02:48:34;;;;;;;4.80;1.97;;;;;;;;;;5050328;28;20450;-73
2023/05/03 02:51:02;;;;;;;2.90;2.13;;;;;;;;;;5050429;28;20456;-78
2023/05/03 02:53:30;;;;;;;3.30;1.90;;;;;;;;;;5050123;28;20497;-78
2023/05/03 02:55:58;;;;;;;2.93;2.07;;;;;;;;;;5049634;28;20494;-78
2023/05/03 02:58:25;;;;;;;3.17;2.33;;;;;;;;;;5050716;28;20450;-79
2023/05/03 03:00:52;;;;;;;4.43;2.20;;;;;;;;;;5049780;28;20461;-78
2023/05/03 03:03:19;;;;;;;4.10;2.20;;;;;;;;;;5050231;28;20454;-77
2023/05/03 03:05:46;;;;;;;2.70;1.80;;;;;;;;;;5049769;28;20450;-77
2023/05/03 03:08:13;;;;;;;3.57;1.77;;;;;;;;;;5050322;28;20474;-77
2023/05/03 03:10:42;;;;;;;4.60;1.90;;;;;;;;;;5049138;28;20533;-77
2023/05/03 03:13:09;;;;;;;3.63;2.13;;;;;;;;;;5037073;28;20509;-75
2023/05/03 03:15:36;;;;;;;4.23;1.70;;;;;;;;;;5049974;28;20469;-75
2023/05/03 03:18:03;;;;;;;3.90;1.93;;;;;;;;;;5053348;28;20450;-78
2023/05/03 03:20:30;;;;;;;3.40;1.60;;;;;;;;;;5053840;28;20879;-77
2023/05/03 03:22:58;;;;;;;1.97;1.30;;;;;;;;;;5052916;28;20529;-77
2023/05/03 03:25:25;;;;;;;3.07;1.73;;;;;;;;;;5053038;28;20959;-78
2023/05/03 03:27:53;;;;;;;2.67;1.60;;;;;;;;;;5053319;28;20450;-77
2023/05/03 03:30:20;;;;;;;3.27;1.53;;;;;;;;;;5053606;28;20935;-77
2023/05/03 03:32:47;;;;;;;3.70;2.50;;;;;;;;;;5053427;28;20477;-76
2023/05/03 03:35:14;;;;;;;4.20;2.10;;;;;;;;;;5053180;28;20461;-76
2023/05/03 03:37:42;;;;;;;3.87;1.90;;;;;;;;;;5040243;28;20439;-77
2023/05/03 03:40:10;;;;;;;3.93;2.37;;;;;;;;;;5053663;28;20446;-77
2023/05/03 03:42:37;;;;;;;2.70;1.67;;;;;;;;;;5053503;28;20461;-76
2023/05/03 03:45:06;;;;;;;4.17;1.90;;;;;;;;;;5053317;28;20454;-76
2023/05/03 03:47:33;;;;;;;3.23;2.80;;;;;;;;;;5053597;28;20462;-77
2023/05/03 03:50:00;;;;;;;3.77;2.33;;;;;;;;;;5053534;28;20455;-76
2023/05/03 03:52:28;;;;;;;4.93;2.47;;;;;;;;;;5053436;28;20482;-77
2023/05/03 03:54:55;;;;;;;3.70;1.57;;;;;;;;;;5052323;28;20486;-77
2023/05/03 03:57:23;;;;;;;3.00;1.70;;;;;;;;;;5053608;28;20461;-77
2023/05/03 03:59:51;;;;;;;2.77;1.77;;;;;;;;;;5052720;28;20882;-77
2023/05/03 04:02:20;;;;;;;3.70;2.10;;;;;;;;;;5053374;28;20458;-77
2023/05/03 04:04:47;;;;;;;3.67;2.07;;;;;;;;;;5051931;28;20507;-77
2023/05/03 04:07:14;;;;;;;5.30;2.47;;;;;;;;;;5052993;28;20455;-77
2023/05/03 04:09:41;;;;;;;3.60;2.47;;;;;;;;;;5052420;28;20481;-77
2023/05/03 04:12:08;;;;;;;3.30;1.90;;;;;;;;;;5052880;28;20493;-77
2023/05/03 04:14:35;;;;;;;3.30;2.60;;;;;;;;;;5051948;28;20454;-75
2023/05/03 04:17:03;;;;;;;3.27;1.83;;;;;;;;;;5053258;28;20818;-77
2023/05/03 04:19:31;;;;;;;2.83;1.60;;;;;;;;;;5052508;28;20460;-77
2023/05/03 04:21:59;;;;;;;4.97;3.00;;;;;;;;;;5052671;28;20485;-77
2023/05/03 04:24:29;;;;;;;3.60;2.30;;;;;;;;;;5051452;28;20936;-76
2023/05/03 04:26:57;;;;;;;5.53;2.60;;;;;;;;;;5050016;28;20989;-78
2023/05/03 04:29:24;;;;;;;5.30;2.67;;;;;;;;;;5052086;28;20462;-78
2023/05/03 04:31:51;;;;;;;3.77;2.20;;;;;;;;;;5051020;28;20841;-77
2023/05/03 04:34:19;;;;;;;6.17;2.50;;;;;;;;;;5051698;28;20453;-77
2023/05/03 04:36:47;;;;;;;4.40;2.50;;;;;;;;;;5051633;28;20455;-75
2023/05/03 04:39:15;;;;;;;6.87;2.47;;;;;;;;;;5044634;28;20497;-77
2023/05/03 04:41:42;;;;;;;3.87;2.47;;;;;;;;;;5051162;28;20786;-76
2023/05/03 04:44:09;;;;;;;3.60;2.23;;;;;;;;;;5051333;28;20455;-75
2023/05/03 04:46:36;;;;;;;3.47;2.37;;;;;;;;;;5051374;28;20455;-74
2023/05/03 04:49:03;;;;;;;4.50;1.97;;;;;;;;;;5052420;28;20446;-75
2023/05/03 04:51:31;;;;;;;4.53;2.10;;;;;;;;;;5051710;28;20458;-75
2023/05/03 04:54:00;;;;;;;3.00;2.23;;;;;;;;;;5050216;28;20494;-75
2023/05/03 04:56:28;;;;;;;5.83;3.20;;;;;;;;;;5051722;28;20461;-76
2023/05/03 04:58:55;;;;;;;4.77;2.87;;;;;;;;;;5050997;28;20451;-75
2023/05/03 05:01:26;;;;;;;6.20;3.10;;;;;;;;;;5051769;28;20832;-76
2023/05/03 05:03:54;;;;;;;8.03;3.50;;;;;;;;;;5050220;28;20569;-75
2023/05/03 05:06:21;;;;;;;8.00;3.63;;;;;;;;;;5050805;28;20454;-75
2023/05/03 05:08:48;;;;;;;5.07;2.83;;;;;;;;;;5050082;28;20457;-75
2023/05/03 05:11:16;;;;;;;3.57;2.53;;;;;;;;;;5051380;28;20454;-75
2023/05/03 05:13:43;;;;;;;5.90;3.70;;;;;;;;;;5050082;28;20478;-75
2023/05/03 05:16:10;;;;;;;7.27;3.20;;;;;;;;;;5050432;28;20994;-76
2023/05/03 05:18:37;;;;;;;6.33;3.67;;;;;;;;;;5050326;28;20439;-75
2023/05/03 05:21:05;;;;;;;4.90;2.50;;;;;;;;;;5050679;28;20454;-75
2023/05/03 05:23:32;;;;;;;10.20;3.77;;;;;;;;;;5050985;28;20458;-75
2023/05/03 05:26:00;;;;;;;6.33;3.00;;;;;;;;;;5050350;28;20446;-75
2023/05/03 05:28:28;;;;;;;5.90;3.70;;;;;;;;;;5051403;28;20451;-75
2023/05/03 05:30:55;;;;;;;5.00;3.17;;;;;;;;;;5050571;28;20463;-75
2023/05/03 05:33:23;;;;;;;6.30;3.30;;;;;;;;;;5050553;28;20493;-75
2023/05/03 05:35:50;;;;;;;4.10;2.57;;;;;;;;;;5050393;28;20541;-75
2023/05/03 05:38:17;;;;;;;5.93;3.23;;;;;;;;;;5050876;28;20447;-75
2023/05/03 05:40:45;;;;;;;6.13;3.50;;;;;;;;;;5049968;28;20446;-75
2023/05/03 05:43:12;;;;;;;6.27;3.40;;;;;;;;;;5049614;28;20477;-77
2023/05/03 05:45:40;;;;;;;5.63;3.40;;;;;;;;;;5052318;28;20465;-78
2023/05/03 05:48:08;;;;;;;6.20;3.80;;;;;;;;;;5053984;28;20536;-76
2023/05/03 05:50:35;;;;;;;5.70;3.40;;;;;;;;;;5059713;28;20446;-76
2023/05/03 05:53:02;;;;;;;5.83;3.60;;;;;;;;;;5049678;28;20512;-76
2023/05/03 05:55:29;;;;;;;6.23;3.00;;;;;;;;;;5053914;28;20473;-78
2023/05/03 05:57:56;;;;;;;5.77;3.17;;;;;;;;;;5049703;28;20811;-75
2023/05/03 06:00:24;;;;;;;4.27;2.90;;;22.40;1.00;;;;;;5051105;28;20481;-78
2023/05/03 06:02:52;;;;;;;6.07;3.30;;;10.90;20.60;;;;;;5050074;28;20472;-75
2023/05/03 06:05:19;;;;;;;6.33;3.37;;;10.80;99.90;;;;;;5050269;28;20541;-75
2023/05/03 06:07:46;;;;;;;5.50;3.10;;;10.80;1.00;;;;;;5044354;28;20539;-77
2023/05/03 06:10:12;;;;;;;6.20;3.20;;;10.90;1.00;;;;;;5050956;28;20457;-78
2023/05/03 06:12:39;;;;;;;7.57;4.43;;;11.00;99.90;;;;;;5049950;28;20486;-78
2023/05/03 06:15:08;;;;;;;5.17;3.27;;;11.00;1.00;;;;;;5050207;28;20482;-72
2023/05/03 06:17:35;;;;;;;6.50;3.87;;;11.20;99.90;;;;;;5048045;28;20510;-78
2023/05/03 06:20:04;;;;;;;3.50;2.10;;;11.20;99.90;;;;;;5050360;28;20450;-75
2023/05/03 06:22:31;;;;;;;5.47;2.83;;;11.10;99.90;;;;;;5050547;28;20548;-81
2023/05/03 06:24:58;;;;;;;7.10;4.00;;;11.20;99.90;;;;;;5049053;28;20460;-75
2023/05/03 06:27:25;;;;;;;3.87;2.73;;;11.20;99.90;;;;;;5050257;28;20465;-76
2023/05/03 06:29:52;;;;;;;5.50;3.67;;;11.10;99.90;;;;;;5049241;28;20932;-79
2023/05/03 06:32:20;;;;;;;6.57;3.37;;;11.30;99.90;;;;;;5047756;28;20455;-79
2023/05/03 06:34:47;;;;;;;7.50;4.20;;;11.40;1.00;;;;;;5047862;28;21050;-87
2023/05/03 06:37:15;;;;;;;4.50;2.67;;;11.50;1.00;;;;;;5049488;28;20443;-87
2023/05/03 06:39:42;;;;;;;7.47;3.60;;;11.50;99.90;;;;;;5040603;28;20449;-76
2023/05/03 06:42:09;;;;;;;5.47;3.60;;;11.50;99.90;;;;;;5049024;28;20541;-82
2023/05/03 06:44:35;;;;;;;6.43;3.47;;;11.70;99.90;;;;;;5048975;28;20468;-76
2023/05/03 06:47:02;;;;;;;8.13;3.40;;;11.60;99.90;;;;;;5049696;28;20461;-77
2023/05/03 06:49:29;;;;;;;5.30;3.50;;;11.50;1.00;;;;;;5049844;28;20461;-80
2023/05/03 06:51:56;;;;;;;6.17;3.60;;;11.60;1.00;;;;;;5051651;28;20593;-81
2023/05/03 06:54:24;;;;;;;5.47;3.43;;;;;;;;;;5052928;28;20512;-80
2023/05/03 06:56:51;;;;;;;5.47;3.40;;;;;;;;;;5043152;28;20948;-79
2023/05/03 06:59:18;;;;;;;5.40;3.10;;;;;;;;;;5047195;28;20477;-79
2023/05/03 07:01:45;;;;;;;4.90;2.83;;;;;;;;;;5052532;28;20446;-79
2023/05/03 07:04:13;;;;;;;7.23;4.10;;;;;;;;;;5052936;28;20527;-81
2023/05/03 07:06:40;;;;;;;4.77;2.90;;;;;;;;;;5047943;28;20474;-81
2023/05/03 07:09:07;;;;;;;5.50;3.47;;;;;;;;;;5052582;28;20951;-80
2023/05/03 07:11:38;;;;;;;3.93;2.47;;;;;;;;;;5039713;28;20458;-75
2023/05/03 07:14:06;;;;;;;5.17;3.53;;;;;;;;;;5052449;28;20470;-79
2023/05/03 07:16:33;;;;;;;7.97;4.20;;;;;;;;;;5051932;28;20492;-78
2023/05/03 07:19:00;;;;;;;6.57;4.07;;;;;;;;;;5048938;28;20450;-81
2023/05/03 07:21:28;;;;;;;7.00;4.30;;;;;;;;;;5052077;28;20545;-78
2023/05/03 07:23:55;;;;;;;5.00;3.33;;;;;;;;;;5052224;28;20539;-79
2023/05/03 07:26:22;;;;;;;4.33;3.13;;;;;;;;;;5052915;28;20462;-83
2023/05/03 07:28:51;;;;;;;8.23;4.10;;;;;;;;;;5051495;28;20821;-79
2023/05/03 07:31:18;;;;;;;6.17;4.07;;;;;;;;;;5052416;28;20931;-80
2023/05/03 07:33:45;;;;;;;4.50;2.90;;;;;;;;;;5052449;28;20478;-80
2023/05/03 07:36:12;;;;;;;8.70;4.57;;;;;;;;;;5052852;28;20740;-79
2023/05/03 07:38:39;;;;;;;7.60;3.80;;;;;;;;;;5051592;28;20443;-82
2023/05/03 07:41:06;;;;;;;6.13;3.77;;;;;;;;;;5053058;28;20462;-82
2023/05/03 07:43:33;;;;;;;6.20;3.40;;;;;;;;;;5052023;28;20462;-76
2023/05/03 07:46:02;;;;;;;7.20;4.43;;;;;;;;;;5052047;28;20442;-77
2023/05/03 07:48:29;;;;;;;7.00;4.30;;;;;;;;;;5052586;28;20458;-82
2023/05/03 07:50:56;;;;;;;4.37;3.30;;;11.80;99.90;;;;;;5057829;28;20438;-86
2023/05/03 07:53:23;;;;;;;6.33;3.70;;;12.80;99.90;;;;;;5052737;28;20502;-82
2023/05/03 07:55:54;;;;;;;4.97;3.17;;;12.70;1.00;;;;;;5052161;28;20987;-83
2023/05/03 07:58:21;;;;;;;5.87;3.67;;;12.90;1.00;;;;;;5050784;28;20508;-78
2023/05/03 08:00:47;;;;;;;7.20;3.20;;;12.90;1.00;;;;;;5051354;28;20462;-78
2023/05/03 08:03:15;;;;;;;6.90;3.73;;;13.00;99.90;;;;;;5051226;28;20454;-77
2023/05/03 08:05:42;;;;;;;9.60;3.83;;;13.00;99.90;;;;;;5050085;28;20457;-77
2023/05/03 08:08:09;;;;;;;5.57;3.50;;;13.20;99.90;;;;;;5051149;28;20451;-78
2023/05/03 08:10:36;;;;;;;6.10;3.43;;;13.20;99.90;;;;;;5052095;28;20450;-80
2023/05/03 08:13:05;;;;;;;4.20;2.93;;;13.10;99.90;;;;;;5051890;28;20446;-81
2023/05/03 08:15:31;;;;;;;5.07;3.20;;;13.00;99.90;;;;;;5051800;28;20454;-82
2023/05/03 08:17:59;;;;;;;7.10;3.10;;;13.20;99.90;;;;;;5050359;28;20806;-79
2023/05/03 08:20:28;;;;;;;4.80;4.07;;;13.30;99.90;;;;;;5052196;28;20442;-81
2023/05/03 08:22:55;;;;;;;5.87;4.10;;;13.50;99.90;;;;;;5051164;28;20442;-80
2023/05/03 08:25:23;;;;;;;6.43;4.13;;;13.60;99.90;;;;;;5051634;28;20719;-81
2023/05/03 08:27:50;;;;;;;4.67;2.93;;;13.70;71.70;;;;;;5051211;28;20993;-82
2023/05/03 08:30:17;;;;;;;5.90;3.20;;;13.80;30.80;;;;;;5051831;28;20442;-79
2023/05/03 08:32:44;;;;;;;6.37;3.43;;;13.90;1.00;;;;;;5043830;28;20455;-81
2023/05/03 08:35:12;;;;;;;4.40;3.03;;;13.80;1.00;;;;;;5051706;28;20534;-79
2023/05/03 08:37:42;;;;;;;5.23;3.60;;;14.00;1.00;;;;;;5049929;28;20488;-77
2023/05/03 08:40:10;;;;;;;5.33;2.97;;;14.00;1.00;;;;;;5051106;28;20470;-78
2023/05/03 08:42:40;;;;;;;4.77;2.97;;;14.00;1.00;;;;;;5050871;28;20446;-78
2023/05/03 08:45:10;;;;;;;5.50;3.37;;;14.10;1.00;;;;;;5051908;28;20458;-83
2023/05/03 08:47:39;;;;;;;4.80;2.63;;;14.20;1.00;;;;;;5050517;28;20442;-77
2023/05/03 08:50:08;;;;;;;7.97;4.50;;;14.20;1.00;;;;;;5051409;28;20450;-81
2023/05/03 08:52:35;;;;;;;8.60;4.50;;;14.30;1.00;;;;;;5050496;28;20939;-78
2023/05/03 08:55:03;;;;;;;9.70;3.23;;;14.30;1.00;;;;;;5050190;28;20494;-84
2023/05/03 08:57:31;;;;;;;3.37;2.57;;;14.50;1.00;;;;;;5051842;28;20447;-83
2023/05/03 09:00:00;;;;;;;4.80;3.13;;;14.50;1.00;;;;;;5051048;28;20947;-82
2023/05/03 09:02:27;;;;;;;6.97;3.40;;;14.60;1.00;;;;;;5051729;28;20451;-81
2023/05/03 09:04:55;;;;;;;5.17;3.47;;;14.80;1.00;;;;;;5050890;28;20455;-83
2023/05/03 09:07:22;;;;;;;5.50;2.97;;;14.90;1.00;;;;;;5051573;28;20500;-83
2023/05/03 09:09:49;;;;;;;5.67;3.13;;;14.90;1.00;;;;;;5050778;28;20446;-82
2023/05/03 09:12:34;;;;;;;4.80;3.50;;;14.80;1.00;;;;;;5051385;28;20459;-83
2023/05/03 09:15:01;;;;;;;4.50;4.03;;;14.80;1.00;;;;;;5051199;28;20470;-83
2023/05/03 09:17:28;;;;;;;4.00;3.07;;;15.10;1.00;;;;;;5051295;28;20550;-81
2023/05/03 09:19:56;;;;;;;3.40;2.73;;;15.20;99.90;;;;;;5050912;28;21275;-81
2023/05/03 09:22:26;;;;;;;5.30;3.10;;;15.40;99.90;;;;;;5050465;28;21279;-81
2023/05/03 09:24:55;;;;;;;4.23;2.80;;;15.50;99.90;;;;;;5049192;28;20469;-81
2023/05/03 09:27:24;;;;;;;4.27;2.93;;;15.60;99.90;;;;;;5050343;28;21300;-81
2023/05/03 09:29:51;;;;;;;5.47;3.00;;;15.70;99.90;;;;;;5050455;28;20466;-82
2023/05/03 09:32:18;;;;;;;3.63;2.53;;;15.80;99.90;;;;;;5050983;28;20443;-81
2023/05/03 09:34:45;;;;;;;4.37;3.10;;;15.90;99.90;;;;;;5049923;28;20491;-85
2023/05/03 09:37:13;;;;;;;4.20;2.90;;;15.90;99.90;;;;;;5051055;28;20449;-86
2023/05/03 09:39:41;;;;;;;4.27;2.43;;;16.00;99.90;;;;;;5050203;28;20512;-82
2023/05/03 09:42:13;;;;;;;6.20;2.77;;;16.20;99.90;;;;;;5050609;28;20450;-82
2023/05/03 09:44:47;;;;;;;4.20;2.23;;;16.30;99.90;;;;;;5050240;28;20461;-83
2023/05/03 09:47:15;;;;;;;5.00;3.40;;;16.20;99.90;;;;;;5050717;28;20450;-80
2023/05/03 09:49:41;;;;;;;3.60;2.13;;;16.20;99.90;;;;;;5049373;28;20442;-80
2023/05/03 09:52:09;;;;;;;3.40;2.37;;;16.30;99.90;;;;;;5039527;28;20464;-79
2023/05/03 09:54:37;;;;;;;4.00;2.43;;;16.30;99.90;;;;;;5049964;28;20505;-77
2023/05/03 09:57:06;;;;;;;4.87;2.87;;;16.40;99.90;;;;;;5050951;28;20498;-77
2023/05/03 09:59:33;;;;;;;4.97;2.50;;;16.50;99.90;;;;;;5055247;28;20449;-88
2023/05/03 10:02:04;;;;;;;3.67;3.20;;;16.50;99.90;;;;;;5050397;28;20461;-78
2023/05/03 10:04:39;;;;;;;4.00;2.50;;;16.40;99.90;;;;;;5050676;28;20451;-79
2023/05/03 10:07:09;;;;;;;4.40;2.63;;;16.60;99.90;;;;;;5047775;28;20441;-80
2023/05/03 10:09:40;;;;;;;3.87;2.60;;;16.70;99.90;;;;;;5049844;28;20461;-78
2023/05/03 10:12:10;;;;;;;6.47;2.90;;;16.60;99.90;;;;;;5050296;28;20457;-79
2023/05/03 10:14:40;;;;;;;3.37;2.30;;;16.50;99.90;;;;;;5049933;28;20481;-78
2023/05/03 10:17:13;;;;;;;4.80;2.73;;;16.60;99.90;;;;;;5043692;28;20461;-79
2023/05/03 10:19:50;;;;;;;3.13;2.40;;;16.80;99.90;;;;;;5037480;28;20957;-80
2023/05/03 10:22:16;;;;;;;5.23;2.70;;;16.80;99.90;;;;;;5049967;28;20781;-79
2023/05/03 10:25:07;;;;;;;4.80;2.50;;;16.70;99.90;;;;;;5049372;28;20462;-80
2023/05/03 10:27:41;;;;;;;3.90;2.27;;;16.60;99.90;;;;;;5053287;28;20454;-78
2023/05/03 10:30:27;;;;;;;3.50;2.03;;;16.60;99.90;;;;;;5054604;28;20832;-78
2023/05/03 10:32:55;;;;;;;4.57;3.23;;;16.60;99.90;;;;;;5053691;28;20928;-78
2023/05/03 10:35:26;;;;;;;4.40;3.07;;;16.70;99.90;;;;;;5054213;28;20513;-77
2023/05/03 10:37:55;;;;;;;2.97;2.07;;;16.70;99.90;;;;;;5050544;28;20446;-78
2023/05/03 10:40:22;;;;;;;2.87;1.67;;;16.80;99.90;;;;;;5050774;28;20458;-77
2023/05/03 10:42:52;;;;;;;2.83;2.10;;;16.90;99.90;;;;;;5049766;28;20457;-77
2023/05/03 10:45:23;;;;;;;4.70;3.30;;;16.90;99.90;;;;;;5048806;28;20928;-78
2023/05/03 10:48:19;;;;;;;9.00;2.80;;;16.90;99.90;;;;;;5048898;28;20450;-74
2023/05/03 10:50:47;;;;;;;4.00;2.57;;;17.10;99.90;;;;;;5048920;28;20510;-77
2023/05/03 10:53:36;;;;;;;2.87;2.00;;;17.10;99.90;;;;;;5049762;28;20458;-76
2023/05/03 10:56:04;;;;;;;3.57;2.20;;;16.80;99.90;;;;;;5047057;28;20488;-76
2023/05/03 10:58:34;;;;;;;2.93;1.80;;;17.00;99.90;;;;;;5049866;28;20453;-78
2023/05/03 11:01:03;;;;;;;2.60;2.00;;;17.20;99.90;;;;;;5049065;28;20454;-81
2023/05/03 11:03:52;;;;;;;3.60;2.50;;;17.50;99.90;;;;;;5047482;28;20442;-77
2023/05/03 11:06:37;;;;;;;4.87;3.20;;;17.50;99.90;;;;;;5048200;28;20445;-77
2023/05/03 11:09:06;;;;;;;3.50;2.40;;;17.20;99.90;;;;;;5045919;28;20450;-78
2023/05/03 11:11:35;;;;;;;3.17;2.10;;;16.90;99.90;;;;;;5048797;28;20458;-78
2023/05/03 11:14:02;;;;;;;4.00;1.60;;;16.90;99.90;;;;;;5049499;28;20480;-76
2023/05/03 11:16:29;;;;;;;3.83;2.43;;;17.00;99.90;;;;;;5050259;28;20458;-77
2023/05/03 11:18:59;;;;;;;2.90;2.10;;;17.50;99.90;;;;;;5048205;28;20442;-76
2023/05/03 11:21:26;;;;;;;3.17;2.40;;;17.70;99.90;;;;;;5049546;28;20457;-77
2023/05/03 11:23:53;;;;;;;3.30;2.13;;;17.50;99.90;;;;;;5049044;28;20458;-77
2023/05/03 11:26:24;;;;;;;3.20;2.20;;;17.40;99.90;;;;;;5049264;28;20461;-77
2023/05/03 11:28:51;;;;;;;3.70;1.57;;;17.20;99.90;;;;;;5049263;28;20465;-76
2023/05/03 11:31:18;;;;;;;2.27;1.70;;;17.60;99.90;;;;;;5047550;28;21088;-77
2023/05/03 11:33:45;;;;;;;3.20;2.00;;;17.50;99.90;;;;;;5048804;28;20465;-77
2023/05/03 11:36:13;;;;;;;1.97;1.63;;;17.50;99.90;;;;;;5048541;28;20995;-77
2023/05/03 11:38:40;;;;;;;2.40;1.40;;;17.80;99.90;;;;;;5046891;28;20470;-78
2023/05/03 11:41:13;;;;;;;4.77;1.80;;;18.20;99.90;;;;;;5049231;28;20454;-78
2023/05/03 11:43:41;;;;;;;2.90;2.10;;;;;;;;;;5048554;28;20521;-78
2023/05/03 11:46:09;;;;;;;2.87;1.53;;;;;;;;;;5048995;28;20534;-77
2023/05/03 11:48:36;;;;;;;2.83;1.87;;;;;;;;;;5048199;28;20442;-79
2023/05/03 11:51:09;;;;;;;2.23;1.33;;;;;;;;;;5050550;28;20446;-78
2023/05/03 11:53:39;;;;;;;2.63;2.00;;;;;;;;;;5051384;28;20490;-79
2023/05/03 11:56:08;;;;;;;2.57;2.00;;;;;;;;;;5052403;28;20478;-79
2023/05/03 11:58:36;;;;;;;3.20;1.90;;;;;;;;;;5052423;28;20461;-79
2023/05/03 12:01:04;;;;;;;2.40;2.20;;;;;;;;;;5050703;28;20447;-79
2023/05/03 12:03:32;;;;;;;1.80;1.53;;;;;;;;;;5042959;28;20957;-77
2023/05/03 12:05:59;;;;;;;2.13;1.40;;;;;;;;;;5050955;28;20451;-80
2023/05/03 12:08:29;;;;;;;3.43;2.13;;;;;;;;;;5051682;28;20446;-79
2023/05/03 12:10:57;;;;;;;3.30;2.00;;;;;;;;;;5050941;28;20485;-76
2023/05/03 12:13:27;;;;;;;3.07;1.97;;;;;;;;;;5051818;28;20462;-76
2023/05/03 12:15:57;;;;;;;2.93;2.37;;;;;;;;;;5050564;28;20850;-78
2023/05/03 12:18:24;;;;;;;3.10;2.20;;;;;;;;;;5051359;28;21093;-77
2023/05/03 12:20:56;;;;;;;2.87;1.97;;;;;;;;;;5051167;28;20446;-77
2023/05/03 12:23:23;;;;;;;2.73;2.07;;;;;;;;;;5052692;28;20450;-78
2023/05/03 12:25:50;;;;;;;5.70;2.80;;;;;;;;;;5050686;28;20450;-78
2023/05/03 12:28:19;;;;;;;2.30;1.70;;;;;;;;;;5041941;28;20805;-79
2023/05/03 12:30:46;;;;;;;2.73;1.93;;;;;;;;;;5049562;28;20439;-78
2023/05/03 12:33:15;;;;;;;2.00;1.60;;;;;;;;;;5052490;28;20454;-78
2023/05/03 12:35:42;;;;;;;2.73;2.03;;;;;;;;;;5050869;28;20489;-78
2023/05/03 12:38:09;;;;;;;2.87;2.00;;;;;;;;;;5046279;28;20446;-76
2023/05/03 12:40:37;;;;;;;2.90;2.17;;;;;;;;;;5051475;28;20462;-79
2023/05/03 12:43:05;;;;;;;3.23;2.10;;;;;;;;;;5051955;28;20556;-78
2023/05/03 12:45:33;;;;;;;2.67;2.07;;;;;;;;;;5051447;28;21179;-78
2023/05/03 12:48:01;;;;;;;2.77;1.93;;;;;;;;;;5045210;28;20447;-77
2023/05/03 12:50:29;;;;;;;3.30;2.10;;;;;;;;;;5046902;28;20446;-78
2023/05/03 12:52:56;;;;;;;2.47;1.60;;;;;;;;;;5049937;28;20577;-77
2023/05/03 12:55:24;;;;;;;2.80;1.67;;;;;;;;;;5051313;28;20490;-75
2023/05/03 12:57:51;;;;;;;4.07;2.03;;;;;;;;;;5048803;28;20542;-79
2023/05/03 13:00:21;;;;;;;2.30;1.90;;;;;;;;;;5049986;28;20447;-74
2023/05/03 13:02:49;;;;;;;2.10;1.70;;;;;;;;;;5050035;28;20500;-75
2023/05/03 13:05:17;;;;;;;2.63;2.30;;;;;;;;;;5051372;28;20447;-75
2023/05/03 13:07:45;;;;;;;2.23;1.50;;;;;;;;;;5050432;28;20546;-74
2023/05/03 13:10:12;;;;;;;3.50;2.60;;;;;;;;;;5051285;28;20443;-75
2023/05/03 13:12:40;;;;;;;2.63;2.00;;;;;;;;;;5050580;28;20481;-76
2023/05/03 13:15:08;;;;;;;2.67;1.93;;;;;;;;;;5050249;28;20482;-74
2023/05/03 13:17:35;;;;;;;3.87;2.10;;;;;;;;;;5050207;28;20538;-75
2023/05/03 13:20:07;;;;;;;2.97;2.03;;;;;;;;;;5050445;28;20969;-75
2023/05/03 13:22:34;;;;;;;2.50;2.00;;;;;;;;;;5049921;28;20935;-76
2023/05/03 13:25:01;;;;;;;3.07;1.23;;;;;;;;;;5051781;28;20520;-74
2023/05/03 13:27:28;;;;;;;2.73;1.93;;;18.50;99.90;;;;;;5050290;28;20449;-73
2023/05/03 13:29:55;;;;;;;3.30;2.07;;;19.70;8.80;;;;;;5048876;28;20454;-76
2023/05/03 13:32:22;;;;;;;2.87;1.70;;;19.80;9.10;;;;;;5049373;28;20916;-74
2023/05/03 13:34:48;;;;;;;2.10;1.57;;;19.80;9.50;;;;;;5049812;28;20505;-74
2023/05/03 13:37:18;;;;;;;2.50;1.17;;;20.10;9.70;;;;;;5050032;28;20458;-74
2023/05/03 13:39:45;;;;;;;2.40;1.80;;;20.80;9.40;;;;;;5049364;28;20446;-76
2023/05/03 13:42:12;;;;;;;2.13;1.63;;;21.00;8.10;;;;;;5050388;28;20456;-75
2023/05/03 13:44:39;;;;;;;2.80;2.00;;;20.90;7.20;;;;;;5049756;28;20446;-76
2023/05/03 13:47:06;;;;;;;2.50;1.90;;;20.70;16.40;;;;;;5049589;28;20512;-76
2023/05/03 13:49:33;;;;;;;2.43;2.03;;;21.00;6.30;;;;;;5049327;28;20490;-76
2023/05/03 13:52:00;;;;;;;2.37;1.80;;;21.10;5.10;;;;;;5049881;28;20939;-76
2023/05/03 13:54:28;;;;;;;2.73;1.83;;;21.00;6.30;;;;;;5050450;28;20494;-75
2023/05/03 13:56:57;;;;;;;2.50;1.57;;;20.80;4.50;;;;;;5047996;28;21233;-75
2023/05/03 13:59:24;;;;;;;2.43;1.53;;;20.60;5.20;;;;;;5050229;28;21229;-75
2023/05/03 14:01:51;;;;;;;4.93;2.80;;;20.60;3.20;;;;;;5048347;28;20453;-76